Time;durP1;ratioP1;P1;durP2;ratioP2;P2;SDS_P1;SDS_P2;PMS_P1;PMS_P2;Temp;Humidity;BMP_temperature;BMP_pressure;BME280_temperature;BME280_humidity;BME280_pressure;Samples;Min_cycle;Max_cycle;Signal;HPM_P1;HPM_P2
2021/07/12 00:00:17;;;;;;;10.75;5.05;;;16.50;99.90;;;;;;2122208;27;20034;-61
2021/07/12 00:01:17;;;;;;;9.75;5.88;;;16.50;99.90;;;;;;2128849;27;20510;-62
2021/07/12 00:02:18;;;;;;;11.05;5.28;;;16.50;99.90;;;;;;2128746;27;20043;-62
2021/07/12 00:03:19;;;;;;;10.73;5.60;;;16.50;99.90;;;;;;2137372;27;20022;-62
2021/07/12 00:04:20;;;;;;;12.93;5.43;;;16.50;99.90;;;;;;2137637;27;20038;-62
2021/07/12 00:05:21;;;;;;;11.98;5.60;;;16.50;99.90;;;;;;2129873;27;20057;-62
2021/07/12 00:06:22;;;;;;;12.52;5.82;;;16.50;99.90;;;;;;2134114;27;20023;-62
2021/07/12 00:07:23;;;;;;;10.95;6.10;;;16.50;99.90;;;;;;2131952;27;20019;-61
2021/07/12 00:08:23;;;;;;;14.07;5.75;;;16.50;99.90;;;;;;2118962;27;20030;-61
2021/07/12 00:09:24;;;;;;;16.05;6.40;;;16.50;99.90;;;;;;2128845;27;20050;-62
2021/07/12 00:10:27;;;;;;;10.45;6.43;;;16.50;99.90;;;;;;2129184;27;20120;-62
2021/07/12 00:11:28;;;;;;;11.35;6.03;;;16.50;99.90;;;;;;2129627;27;20543;-62
2021/07/12 00:12:29;;;;;;;11.00;5.75;;;16.40;99.90;;;;;;2128670;27;20047;-62
2021/07/12 00:13:29;;;;;;;10.07;5.63;;;16.50;99.90;;;;;;2123848;27;20015;-62
2021/07/12 00:14:30;;;;;;;14.13;6.72;;;16.40;99.90;;;;;;2123133;27;20072;-62
2021/07/12 00:15:31;;;;;;;10.60;6.47;;;16.50;99.90;;;;;;2120471;27;20030;-62
2021/07/12 00:16:32;;;;;;;14.57;6.05;;;16.50;99.90;;;;;;2123334;27;20378;-62
2021/07/12 00:17:32;;;;;;;11.60;5.82;;;16.50;99.90;;;;;;2123398;27;20023;-62
2021/07/12 00:18:33;;;;;;;12.60;5.43;;;16.50;99.90;;;;;;2122738;27;20043;-62
2021/07/12 00:19:34;;;;;;;13.70;6.13;;;16.40;99.90;;;;;;2120523;27;20031;-62
2021/07/12 00:20:36;;;;;;;10.90;5.75;;;16.50;99.90;;;;;;2116011;27;20024;-62
2021/07/12 00:21:37;;;;;;;13.57;6.40;;;16.50;99.90;;;;;;2121616;27;20019;-62
2021/07/12 00:22:38;;;;;;;12.23;5.50;;;16.50;99.90;;;;;;2124027;27;20470;-62
2021/07/12 00:23:39;;;;;;;10.63;6.00;;;16.50;99.90;;;;;;2122821;27;20023;-62
2021/07/12 00:24:39;;;;;;;18.15;5.65;;;16.50;99.90;;;;;;2116372;27;20038;-62
2021/07/12 00:25:40;;;;;;;10.13;5.65;;;16.50;99.90;;;;;;2115601;27;20023;-62
2021/07/12 00:26:41;;;;;;;9.10;5.43;;;16.50;99.90;;;;;;2120707;27;20042;-62
2021/07/12 00:27:42;;;;;;;18.15;6.20;;;16.50;99.90;;;;;;2114670;28;20020;-62
2021/07/12 00:28:43;;;;;;;12.63;5.93;;;16.50;99.90;;;;;;2114631;28;20012;-62
2021/07/12 00:29:44;;;;;;;12.50;5.83;;;16.50;99.90;;;;;;2113721;27;20039;-61
2021/07/12 00:30:45;;;;;;;12.57;5.57;;;16.50;99.90;;;;;;2115124;28;20826;-62
2021/07/12 00:31:46;;;;;;;14.35;5.72;;;16.50;99.90;;;;;;2115094;28;20055;-62
2021/07/12 00:32:47;;;;;;;12.70;5.82;;;16.50;99.90;;;;;;2113600;27;20019;-62
2021/07/12 00:33:48;;;;;;;10.02;5.68;;;16.50;99.90;;;;;;2122140;27;20510;-62
2021/07/12 00:34:49;;;;;;;11.77;5.50;;;16.50;99.90;;;;;;2114515;28;20050;-62
2021/07/12 00:35:50;;;;;;;12.43;5.85;;;16.60;99.90;;;;;;2114575;28;20111;-61
2021/07/12 00:36:51;;;;;;;11.52;5.57;;;16.50;99.90;;;;;;2115366;28;20035;-62
2021/07/12 00:37:53;;;;;;;10.27;5.43;;;16.60;99.90;;;;;;2115261;28;20031;-62
2021/07/12 00:38:54;;;;;;;7.28;5.25;;;16.60;99.90;;;;;;2114279;27;20027;-61
2021/07/12 00:39:54;;;;;;;13.98;5.63;;;16.60;99.90;;;;;;2122469;27;20138;-62
2021/07/12 00:40:56;;;;;;;10.75;5.40;;;16.50;99.90;;;;;;2117803;27;20023;-62
2021/07/12 00:41:57;;;;;;;8.90;5.90;;;16.60;99.90;;;;;;2123779;27;20054;-62
2021/07/12 00:42:58;;;;;;;13.70;6.00;;;16.60;99.90;;;;;;2123723;27;20019;-62
2021/07/12 00:43:58;;;;;;;12.88;5.85;;;16.60;99.90;;;;;;2114803;27;20120;-62
2021/07/12 00:44:59;;;;;;;8.18;5.72;;;16.60;99.90;;;;;;2121286;27;20068;-62
2021/07/12 00:46:00;;;;;;;14.13;5.85;;;16.60;99.90;;;;;;2117839;27;20464;-62
2021/07/12 00:47:01;;;;;;;15.32;6.47;;;16.60;99.90;;;;;;2123000;27;20019;-62
2021/07/12 00:48:02;;;;;;;25.10;6.68;;;16.60;99.90;;;;;;2123024;27;20030;-62
2021/07/12 00:49:03;;;;;;;10.85;6.53;;;16.60;99.90;;;;;;2115134;27;20015;-62
2021/07/12 00:50:07;;;;;;;7.80;6.00;;;16.60;99.90;;;;;;2115289;28;20027;-61
2021/07/12 00:51:09;;;;;;;11.57;5.63;;;16.60;99.90;;;;;;2113479;27;20030;-61
2021/07/12 00:52:10;;;;;;;11.90;5.90;;;16.60;99.90;;;;;;2115156;28;20030;-61
2021/07/12 00:53:12;;;;;;;11.57;5.65;;;16.60;99.90;;;;;;2115081;28;20026;-62
2021/07/12 00:54:13;;;;;;;14.68;6.28;;;16.60;99.90;;;;;;2114840;28;20015;-62
2021/07/12 00:55:28;;;;;;;10.50;5.90;;;16.60;99.90;;;;;;2122386;27;20035;-62
2021/07/12 00:56:29;;;;;;;9.50;6.50;;;16.60;99.90;;;;;;2115397;28;20650;-61
2021/07/12 00:57:30;;;;;;;13.38;6.43;;;16.60;99.90;;;;;;2114895;28;20047;-62
2021/07/12 00:58:31;;;;;;;17.35;6.68;;;16.60;99.90;;;;;;2115130;28;20031;-61
2021/07/12 00:59:33;;;;;;;12.82;6.28;;;16.60;99.90;;;;;;2114948;28;20551;-61
2021/07/12 01:00:34;;;;;;;;;;;16.60;99.90;;;;;;2115776;28;20024;-61
2021/07/12 01:01:35;;;;;;;8.98;6.10;;;16.60;99.90;;;;;;2114109;27;19994;-61
2021/07/12 01:02:36;;;;;;;11.45;6.63;;;16.60;99.90;;;;;;2121455;27;20015;-61
2021/07/12 01:03:36;;;;;;;11.30;6.15;;;16.60;99.90;;;;;;2122488;27;20510;-61
2021/07/12 01:04:37;;;;;;;13.30;6.15;;;16.60;99.90;;;;;;2122959;27;20015;-61
2021/07/12 01:05:41;;;;;;;15.82;7.18;;;16.60;99.90;;;;;;2113210;27;20028;-61
2021/07/12 01:06:42;;;;;;;16.13;6.57;;;16.60;99.90;;;;;;2120299;27;20027;-61
2021/07/12 01:07:44;;;;;;;12.52;6.40;;;16.60;99.90;;;;;;2118378;27;20028;-61
2021/07/12 01:08:44;;;;;;;15.02;6.70;;;16.60;99.90;;;;;;2122776;27;20108;-61
2021/07/12 01:09:45;;;;;;;16.48;7.18;;;16.60;99.90;;;;;;2122828;27;20059;-62
2021/07/12 01:11:13;;;;;;;13.75;6.55;;;16.60;99.90;;;;;;2115011;28;20068;-61
2021/07/12 01:12:32;;;;;;;20.25;7.05;;;16.60;99.90;;;;;;2118176;27;20137;-62
2021/07/12 01:13:44;;;;;;;22.85;6.70;;;16.60;99.90;;;;;;2123042;27;20015;-61
2021/07/12 01:14:54;;;;;;;15.10;6.65;;;16.60;99.90;;;;;;2123496;27;20034;-61
2021/07/12 01:16:11;;;;;;;10.20;6.07;;;16.60;99.90;;;;;;2123378;27;20486;-61
2021/07/12 01:17:48;;;;;;;12.50;6.50;;;16.60;99.90;;;;;;2123513;27;20507;-61
2021/07/12 01:18:51;;;;;;;15.52;6.25;;;16.60;99.90;;;;;;2117983;27;20035;-62
2021/07/12 01:20:34;;;;;;;17.80;6.75;;;16.60;99.90;;;;;;2122358;27;20027;-62
2021/07/12 01:22:29;;;;;;;15.43;6.85;;;16.60;99.90;;;;;;2113916;28;20588;-60
2021/07/12 01:23:29;;;;;;;;;;;16.60;99.90;;;;;;2071721;28;20029;-61
2021/07/12 01:25:14;;;;;;;13.68;6.95;;;16.60;99.90;;;;;;2075917;28;19905;-61
2021/07/12 01:26:33;;;;;;;9.30;5.90;;;16.60;99.90;;;;;;2091521;22;20049;-75
2021/07/12 01:28:12;;;;;;;11.90;6.10;;;16.60;99.90;;;;;;2066669;28;20022;-75
2021/07/12 01:29:20;;;;;;;9.38;5.45;;;16.60;99.90;;;;;;2037814;29;20039;-75
2021/07/12 01:30:58;;;;;;;13.25;6.25;;;16.60;99.90;;;;;;2045933;28;20349;-76
2021/07/12 01:32:08;;;;;;;10.38;5.70;;;16.60;99.90;;;;;;2068463;28;20524;-75
2021/07/12 01:33:21;;;;;;;13.70;5.90;;;16.50;99.90;;;;;;2073276;28;20057;-74
2021/07/12 01:34:41;;;;;;;6.65;5.07;;;16.50;99.90;;;;;;2066919;28;20397;-76
2021/07/12 01:36:02;;;;;;;7.88;5.10;;;16.50;99.90;;;;;;2073758;28;20033;-74
2021/07/12 01:37:02;;;;;;;6.32;4.28;;;16.40;99.90;;;;;;2073540;28;20555;-74
2021/07/12 01:38:29;;;;;;;6.75;4.60;;;16.40;99.90;;;;;;2065373;28;20022;-74
2021/07/12 01:39:39;;;;;;;7.20;4.40;;;16.30;99.90;;;;;;2073549;28;20533;-74
2021/07/12 01:41:06;;;;;;;6.43;4.38;;;16.30;99.90;;;;;;2065090;28;20145;-75
2021/07/12 01:42:12;;;;;;;6.13;3.72;;;16.20;99.90;;;;;;2060957;28;20498;-75
2021/07/12 01:43:41;;;;;;;8.18;4.00;;;16.20;99.90;;;;;;2065388;28;20015;-75
2021/07/12 01:45:00;;;;;;;6.15;4.18;;;16.10;99.90;;;;;;2065851;28;20065;-75
2021/07/12 01:46:09;;;;;;;6.60;3.78;;;16.10;99.90;;;;;;2062676;28;20026;-74
2021/07/12 01:47:41;;;;;;;4.72;3.45;;;16.00;99.90;;;;;;2065981;28;20022;-75
2021/07/12 01:48:53;;;;;;;8.05;3.72;;;16.00;99.90;;;;;;2061958;28;20034;-75
2021/07/12 01:50:05;;;;;;;5.38;3.70;;;15.90;99.90;;;;;;2068287;28;20057;-76
2021/07/12 01:51:10;;;;;;;9.13;3.80;;;15.90;99.90;;;;;;2067886;28;20023;-77
2021/07/12 01:52:33;;;;;;;6.28;3.75;;;15.80;99.90;;;;;;2058746;28;20062;-74
2021/07/12 01:54:16;;;;;;;4.45;3.53;;;15.80;99.90;;;;;;2059686;28;20023;-75
2021/07/12 01:55:28;;;;;;;6.50;4.13;;;15.70;99.90;;;;;;2067676;28;20034;-76
2021/07/12 01:56:35;;;;;;;5.55;3.42;;;15.70;99.90;;;;;;2067817;28;20035;-75
2021/07/12 01:57:50;;;;;;;4.57;3.65;;;15.70;99.90;;;;;;2072985;28;20073;-74
2021/07/12 01:59:17;;;;;;;5.03;4.00;;;15.70;99.90;;;;;;2072966;28;20037;-75
2021/07/12 02:00:19;;;;;;;6.13;3.63;;;15.60;99.90;;;;;;2072854;28;20030;-75
2021/07/12 02:01:22;;;;;;;6.43;4.00;;;15.60;99.90;;;;;;2072995;28;20030;-75
2021/07/12 02:02:29;;;;;;;6.10;3.78;;;15.60;99.90;;;;;;2073019;28;20404;-75
2021/07/12 02:03:32;;;;;;;6.30;3.40;;;15.60;99.90;;;;;;2063217;28;20029;-75
2021/07/12 02:04:34;;;;;;;5.97;3.80;;;15.50;99.90;;;;;;2057082;28;20030;-75
2021/07/12 02:05:37;;;;;;;6.93;3.38;;;15.50;99.90;;;;;;2069760;28;20084;-75
2021/07/12 02:06:40;;;;;;;7.97;3.78;;;15.50;99.90;;;;;;2072870;28;20429;-77
2021/07/12 02:07:41;;;;;;;6.10;3.70;;;15.40;99.90;;;;;;2065035;28;20574;-75
2021/07/12 02:08:47;;;;;;;10.68;4.07;;;15.40;99.90;;;;;;2073090;28;20049;-75
2021/07/12 02:09:50;;;;;;;8.13;4.43;;;15.40;99.90;;;;;;2064898;28;20033;-75
2021/07/12 02:10:52;;;;;;;6.32;4.40;;;15.40;99.90;;;;;;2057093;28;20058;-75
2021/07/12 02:11:57;;;;;;;5.25;3.67;;;15.30;99.90;;;;;;2065052;28;20604;-76
2021/07/12 02:12:59;;;;;;;4.88;3.65;;;15.30;99.90;;;;;;2071417;28;20029;-76
2021/07/12 02:14:00;;;;;;;10.15;3.80;;;15.30;99.90;;;;;;2064785;28;20022;-75
2021/07/12 02:15:04;;;;;;;9.00;3.70;;;15.30;99.90;;;;;;2072805;28;20496;-75
2021/07/12 02:16:06;;;;;;;5.38;4.18;;;15.20;99.90;;;;;;2073315;28;20140;-75
2021/07/12 02:17:09;;;;;;;9.40;4.43;;;15.20;99.90;;;;;;2081217;28;20036;-75
2021/07/12 02:18:11;;;;;;;9.45;3.83;;;15.20;99.90;;;;;;2072588;28;20030;-75
2021/07/12 02:19:13;;;;;;;;;;;15.20;99.90;;;;;;2073272;28;20037;-74
2021/07/12 02:20:15;;;;;;;7.40;3.90;;;15.20;99.90;;;;;;2072940;28;19912;-75
2021/07/12 02:21:17;;;;;;;7.75;3.63;;;15.10;99.90;;;;;;2072820;28;20029;-75
2021/07/12 02:22:18;;;;;;;8.77;3.50;;;15.10;99.90;;;;;;2071143;28;20030;-74
2021/07/12 02:23:21;;;;;;;4.30;3.90;;;15.10;99.90;;;;;;2064656;28;20026;-74
2021/07/12 02:24:22;;;;;;;;;;;15.10;99.90;;;;;;2062317;28;20069;-74
2021/07/12 02:25:26;;;;;;;8.55;3.88;;;15.10;99.90;;;;;;2064688;28;19905;-75
2021/07/12 02:26:29;;;;;;;6.30;3.90;;;15.00;99.90;;;;;;2069412;28;20042;-75
2021/07/12 02:27:32;;;;;;;6.82;4.05;;;15.00;99.90;;;;;;2064302;28;20037;-74
2021/07/12 02:28:33;;;;;;;11.45;3.80;;;15.00;99.90;;;;;;2064597;28;20405;-75
2021/07/12 02:29:35;;;;;;;10.52;4.10;;;15.00;99.90;;;;;;2064509;28;20018;-73
2021/07/12 02:30:36;;;;;;;10.93;4.60;;;15.00;99.90;;;;;;2056726;28;20114;-74
2021/07/12 02:31:38;;;;;;;17.58;4.57;;;15.00;99.90;;;;;;2056527;28;20406;-74
2021/07/12 02:32:40;;;;;;;9.73;4.50;;;15.00;99.90;;;;;;2056530;28;20050;-74
2021/07/12 02:33:42;;;;;;;5.93;4.05;;;15.00;99.90;;;;;;2056329;28;20030;-74
2021/07/12 02:34:43;;;;;;;11.45;4.03;;;15.00;99.90;;;;;;2060688;28;20057;-74
2021/07/12 02:35:44;;;;;;;8.07;4.22;;;15.00;99.90;;;;;;2064628;28;20061;-74
2021/07/12 02:36:48;;;;;;;7.68;4.35;;;15.00;99.90;;;;;;2064109;28;20026;-74
2021/07/12 02:37:49;;;;;;;9.15;4.53;;;15.00;99.90;;;;;;2063613;28;20461;-75
2021/07/12 02:38:52;;;;;;;8.52;4.55;;;15.00;99.90;;;;;;2067284;28;20026;-75
2021/07/12 02:39:53;;;;;;;;;;;15.10;99.90;;;;;;2064960;28;20030;-75
2021/07/12 02:40:54;;;;;;;10.60;4.45;;;15.10;99.90;;;;;;2064613;28;20325;-76
2021/07/12 02:41:56;;;;;;;7.32;4.30;;;15.10;99.90;;;;;;2065442;28;20507;-75
2021/07/12 02:42:57;;;;;;;;;;;15.10;99.90;;;;;;2064755;28;20039;-75
2021/07/12 02:43:59;;;;;;;6.65;4.60;;;15.10;99.90;;;;;;2064292;28;20526;-76
2021/07/12 02:45:01;;;;;;;8.02;4.78;;;15.10;99.90;;;;;;2072660;28;20437;-74
2021/07/12 02:46:03;;;;;;;6.70;4.20;;;15.10;99.90;;;;;;2072775;28;20030;-74
2021/07/12 02:47:04;;;;;;;6.50;3.88;;;15.10;99.90;;;;;;2064755;28;20019;-76
2021/07/12 02:48:06;;;;;;;6.15;4.35;;;15.10;99.90;;;;;;2063049;28;20517;-75
2021/07/12 02:49:08;;;;;;;6.80;4.20;;;15.10;99.90;;;;;;2072244;28;20101;-76
2021/07/12 02:50:10;;;;;;;6.22;4.13;;;15.10;99.90;;;;;;2072760;28;20029;-75
2021/07/12 02:51:15;;;;;;;5.85;4.45;;;15.10;99.90;;;;;;2064659;28;20034;-75
2021/07/12 02:52:22;;;;;;;6.90;4.57;;;15.10;99.90;;;;;;2057155;28;20050;-74
2021/07/12 02:53:31;;;;;;;6.72;4.35;;;15.10;99.90;;;;;;2057186;28;20076;-74
2021/07/12 02:54:39;;;;;;;6.50;4.20;;;15.10;99.90;;;;;;2057211;28;20502;-76
2021/07/12 02:55:41;;;;;;;7.75;4.25;;;15.10;99.90;;;;;;2066099;28;20026;-74
2021/07/12 02:56:42;;;;;;;7.63;4.57;;;15.10;99.90;;;;;;2072631;28;20092;-75
2021/07/12 02:57:44;;;;;;;6.65;4.10;;;15.10;99.90;;;;;;2072719;28;20136;-75
2021/07/12 02:58:45;;;;;;;8.85;4.18;;;15.10;99.90;;;;;;2072550;28;20137;-75
2021/07/12 02:59:46;;;;;;;6.35;4.10;;;15.10;99.90;;;;;;2064650;28;20062;-75
2021/07/12 03:00:46;;;;;;;7.07;4.50;;;15.10;99.90;;;;;;2062562;28;20034;-76
2021/07/12 03:01:48;;;;;;;6.78;4.32;;;15.10;99.90;;;;;;2064308;28;20030;-74
2021/07/12 03:02:49;;;;;;;4.88;3.92;;;15.10;99.90;;;;;;2061469;28;20034;-75
2021/07/12 03:03:49;;;;;;;5.55;4.10;;;15.10;99.90;;;;;;2072506;28;20022;-75
2021/07/12 03:04:50;;;;;;;7.03;3.97;;;15.10;99.90;;;;;;2072585;28;20018;-75
2021/07/12 03:05:53;;;;;;;9.50;4.63;;;15.10;99.90;;;;;;2064653;28;20125;-75
2021/07/12 03:06:57;;;;;;;7.70;4.10;;;15.10;99.90;;;;;;2064702;28;20579;-74
2021/07/12 03:08:12;;;;;;;7.43;4.65;;;15.10;99.90;;;;;;2071277;28;20523;-75
2021/07/12 03:09:17;;;;;;;6.82;4.40;;;15.10;99.90;;;;;;2072445;28;20026;-77
2021/07/12 03:10:20;;;;;;;5.75;4.13;;;15.10;99.90;;;;;;2065022;28;20038;-75
2021/07/12 03:11:25;;;;;;;7.90;4.40;;;15.10;99.90;;;;;;2064830;28;20073;-75
2021/07/12 03:12:47;;;;;;;5.82;4.32;;;15.10;99.90;;;;;;2073265;28;20026;-75
2021/07/12 03:14:02;;;;;;;5.70;4.18;;;15.10;99.90;;;;;;2072638;28;20030;-75
2021/07/12 03:15:13;;;;;;;6.03;4.13;;;15.10;99.90;;;;;;2072395;28;20417;-75
2021/07/12 03:16:15;;;;;;;7.75;4.60;;;15.10;99.90;;;;;;2064305;28;20036;-75
2021/07/12 03:17:16;;;;;;;5.50;4.30;;;15.10;99.90;;;;;;2056674;28;20077;-75
2021/07/12 03:18:23;;;;;;;5.82;4.68;;;15.20;99.90;;;;;;2056525;28;20122;-75
2021/07/12 03:19:30;;;;;;;7.00;4.45;;;15.20;99.90;;;;;;2056780;28;20513;-75
2021/07/12 03:20:32;;;;;;;5.32;4.20;;;15.20;99.90;;;;;;2070201;28;20038;-75
2021/07/12 03:21:34;;;;;;;;;;;15.20;99.90;;;;;;2064638;28;21172;-75
2021/07/12 03:22:36;;;;;;;4.90;4.40;;;15.20;99.90;;;;;;2064764;28;19912;-75
2021/07/12 03:23:40;;;;;;;;;;;15.30;99.90;;;;;;2064687;28;20034;-75
2021/07/12 03:24:43;;;;;;;5.40;4.20;;;15.30;99.90;;;;;;2065210;28;19905;-75
2021/07/12 03:25:54;;;;;;;5.72;4.07;;;15.30;99.90;;;;;;2064356;28;20406;-75
2021/07/12 03:26:57;;;;;;;6.88;4.60;;;15.40;99.90;;;;;;2057839;28;20042;-74
2021/07/12 03:27:59;;;;;;;9.07;4.90;;;15.40;99.90;;;;;;2064476;28;20030;-75
2021/07/12 03:29:00;;;;;;;8.98;4.97;;;15.40;99.90;;;;;;2068066;28;20930;-77
2021/07/12 03:30:05;;;;;;;11.60;4.72;;;15.40;99.90;;;;;;2072676;28;20033;-75
2021/07/12 03:31:09;;;;;;;9.50;4.57;;;15.40;99.90;;;;;;2071668;28;20061;-76
2021/07/12 03:32:12;;;;;;;6.22;4.60;;;15.50;99.90;;;;;;2063257;28;20031;-75
2021/07/12 03:33:15;;;;;;;7.60;5.18;;;15.50;99.90;;;;;;2064366;28;20659;-75
2021/07/12 03:34:17;;;;;;;8.68;4.30;;;15.50;99.90;;;;;;2064980;28;20061;-74
2021/07/12 03:35:19;;;;;;;9.45;4.45;;;15.50;99.90;;;;;;2073131;28;20037;-75
2021/07/12 03:36:21;;;;;;;8.90;4.70;;;15.50;99.90;;;;;;2072696;28;20029;-75
2021/07/12 03:37:22;;;;;;;7.60;5.07;;;15.60;99.90;;;;;;2073008;28;20033;-75
2021/07/12 03:38:23;;;;;;;11.85;4.88;;;15.60;99.90;;;;;;2072398;28;20065;-75
2021/07/12 03:39:25;;;;;;;8.82;4.72;;;15.60;99.90;;;;;;2064709;28;20031;-75
2021/07/12 03:40:26;;;;;;;10.93;4.90;;;15.60;99.90;;;;;;2072668;28;20525;-75
2021/07/12 03:41:27;;;;;;;10.90;4.30;;;15.70;99.90;;;;;;2070894;28;20030;-78
2021/07/12 03:42:27;;;;;;;12.68;4.85;;;15.70;99.90;;;;;;2064287;28;20026;-74
2021/07/12 03:43:28;;;;;;;8.63;4.90;;;15.70;99.90;;;;;;2069608;28;20682;-75
2021/07/12 03:44:29;;;;;;;5.75;4.75;;;15.70;99.90;;;;;;2066333;28;20117;-75
2021/07/12 03:45:31;;;;;;;7.30;4.40;;;15.70;99.90;;;;;;2072210;28;20075;-74
2021/07/12 03:46:32;;;;;;;6.35;4.38;;;15.70;99.90;;;;;;2072909;28;20018;-74
2021/07/12 03:47:35;;;;;;;6.43;4.72;;;15.80;99.90;;;;;;2064363;28;20498;-74
2021/07/12 03:48:44;;;;;;;8.95;4.63;;;15.80;99.90;;;;;;2057047;28;20059;-74
2021/07/12 03:49:45;;;;;;;6.07;4.93;;;15.80;99.90;;;;;;2067023;28;20036;-74
2021/07/12 03:50:46;;;;;;;9.43;4.60;;;15.80;99.90;;;;;;2067931;28;20042;-77
2021/07/12 03:51:49;;;;;;;10.38;4.53;;;15.80;99.90;;;;;;2068551;28;20030;-77
2021/07/12 03:52:52;;;;;;;7.75;4.93;;;15.80;99.90;;;;;;2065996;28;20153;-74
2021/07/12 03:53:53;;;;;;;9.77;4.60;;;15.80;99.90;;;;;;2065558;28;20432;-74
2021/07/12 03:54:54;;;;;;;12.90;5.20;;;15.90;99.90;;;;;;2065642;28;20398;-74
2021/07/12 03:55:55;;;;;;;7.20;4.72;;;15.90;99.90;;;;;;2074035;28;20089;-74
2021/07/12 03:56:55;;;;;;;12.15;4.25;;;15.90;99.90;;;;;;2073595;28;20056;-74
2021/07/12 03:57:58;;;;;;;8.55;4.03;;;15.90;99.90;;;;;;2072318;28;21022;-75
2021/07/12 03:59:00;;;;;;;9.02;4.50;;;15.90;99.90;;;;;;2065285;28;20110;-74
2021/07/12 04:00:01;;;;;;;5.63;4.40;;;15.90;99.90;;;;;;2057379;28;20723;-75
2021/07/12 04:01:02;;;;;;;6.85;4.32;;;15.90;99.90;;;;;;2057755;28;20115;-74
2021/07/12 04:02:03;;;;;;;13.35;5.05;;;15.90;99.90;;;;;;2065701;28;20034;-74
2021/07/12 04:03:04;;;;;;;6.78;4.00;;;15.90;99.90;;;;;;2065564;28;20053;-74
2021/07/12 04:04:05;;;;;;;11.93;4.32;;;15.90;99.90;;;;;;2065262;28;20078;-75
2021/07/12 04:05:07;;;;;;;4.95;3.65;;;15.90;99.90;;;;;;2057654;28;20530;-74
2021/07/12 04:06:08;;;;;;;7.18;4.35;;;16.00;99.90;;;;;;2057829;28;20027;-74
2021/07/12 04:07:08;;;;;;;9.90;4.40;;;15.90;99.90;;;;;;2065660;28;20097;-74
2021/07/12 04:08:09;;;;;;;8.10;4.65;;;16.00;99.90;;;;;;2070988;28;20050;-75
2021/07/12 04:09:11;;;;;;;10.63;4.45;;;15.90;99.90;;;;;;2068642;28;20513;-74
2021/07/12 04:10:13;;;;;;;;;;;15.90;99.90;;;;;;2066100;28;20035;-75
2021/07/12 04:11:15;;;;;;;17.42;4.32;;;16.00;99.90;;;;;;2065931;28;19916;-75
2021/07/12 04:12:23;;;;;;;6.10;4.00;;;16.00;99.90;;;;;;2066720;28;22527;-75
2021/07/12 04:13:24;;;;;;;8.90;4.20;;;16.00;99.90;;;;;;2066059;28;20062;-75
2021/07/12 04:14:25;;;;;;;5.90;3.58;;;15.90;99.90;;;;;;2060310;28;20509;-74
2021/07/12 04:15:26;;;;;;;6.00;3.80;;;16.00;99.90;;;;;;2073962;28;20091;-76
2021/07/12 04:16:27;;;;;;;7.95;4.32;;;16.00;99.90;;;;;;2073966;28;20037;-75
2021/07/12 04:17:27;;;;;;;8.43;4.30;;;16.00;99.90;;;;;;2076044;28;20101;-75
2021/07/12 04:18:28;;;;;;;8.10;4.20;;;16.00;99.90;;;;;;2066225;28;20050;-74
2021/07/12 04:19:29;;;;;;;6.18;4.40;;;15.90;99.90;;;;;;2057582;28;20035;-75
2021/07/12 04:20:29;;;;;;;5.78;3.88;;;16.00;99.90;;;;;;2065749;28;20066;-74
2021/07/12 04:21:30;;;;;;;6.60;3.83;;;16.00;99.90;;;;;;2065546;28;20113;-75
2021/07/12 04:22:31;;;;;;;8.98;3.80;;;16.00;99.90;;;;;;2064347;28;20468;-74
2021/07/12 04:23:31;;;;;;;6.97;3.85;;;16.00;99.90;;;;;;2057355;28;20023;-74
2021/07/12 04:24:32;;;;;;;11.40;4.00;;;16.00;99.90;;;;;;2062454;28;20126;-74
2021/07/12 04:25:33;;;;;;;10.63;3.95;;;16.00;99.90;;;;;;2073676;28;20062;-74
2021/07/12 04:26:33;;;;;;;9.32;4.38;;;16.00;99.90;;;;;;2065398;28;20501;-74
2021/07/12 04:27:34;;;;;;;8.88;4.20;;;16.00;99.90;;;;;;2065508;28;20029;-74
2021/07/12 04:28:35;;;;;;;11.60;3.97;;;16.00;99.90;;;;;;2065463;28;20094;-76
2021/07/12 04:29:36;;;;;;;7.30;4.00;;;16.00;99.90;;;;;;2058230;28;20562;-75
2021/07/12 04:30:36;;;;;;;8.70;3.97;;;16.00;99.90;;;;;;2057590;28;20779;-75
2021/07/12 04:31:37;;;;;;;8.40;4.00;;;16.00;99.90;;;;;;2069249;28;20025;-76
2021/07/12 04:32:38;;;;;;;7.65;4.28;;;16.00;99.90;;;;;;2074242;28;20056;-75
2021/07/12 04:33:39;;;;;;;6.97;4.10;;;16.10;99.90;;;;;;2065587;28;20062;-74
2021/07/12 04:34:39;;;;;;;7.55;4.03;;;16.10;99.90;;;;;;2065411;28;20087;-75
2021/07/12 04:35:40;;;;;;;9.95;4.60;;;16.10;99.90;;;;;;2065768;28;20022;-75
2021/07/12 04:36:41;;;;;;;8.40;3.90;;;16.10;99.90;;;;;;2057930;28;20089;-75
2021/07/12 04:37:42;;;;;;;8.90;3.90;;;16.10;99.90;;;;;;2065680;28;20109;-75
2021/07/12 04:38:42;;;;;;;12.35;4.78;;;16.10;99.90;;;;;;2065329;28;20030;-75
2021/07/12 04:39:43;;;;;;;13.40;4.43;;;16.20;99.90;;;;;;2066749;28;20468;-75
2021/07/12 04:40:44;;;;;;;6.22;3.70;;;16.20;99.90;;;;;;2066491;28;20026;-75
2021/07/12 04:41:45;;;;;;;8.40;4.00;;;16.20;99.90;;;;;;2065380;28;20030;-75
2021/07/12 04:42:46;;;;;;;9.80;4.68;;;16.20;99.90;;;;;;2073500;28;20076;-75
2021/07/12 04:43:46;;;;;;;5.35;3.83;;;16.20;99.90;;;;;;2065215;28;20033;-75
2021/07/12 04:44:47;;;;;;;7.50;3.80;;;16.20;99.90;;;;;;2074475;28;20061;-74
2021/07/12 04:45:48;;;;;;;9.32;3.63;;;16.20;99.90;;;;;;2072163;28;20053;-74
2021/07/12 04:46:49;;;;;;;7.10;3.65;;;16.20;99.90;;;;;;2065156;28;20404;-76
2021/07/12 04:47:50;;;;;;;14.82;4.22;;;16.30;99.90;;;;;;2071406;28;20076;-75
2021/07/12 04:48:50;;;;;;;7.90;4.53;;;16.30;99.90;;;;;;2073302;28;20544;-75
2021/07/12 04:49:51;;;;;;;7.40;3.60;;;16.30;99.90;;;;;;2065233;28;20073;-75
2021/07/12 04:50:52;;;;;;;7.43;4.43;;;16.30;99.90;;;;;;2065400;28;20054;-75
2021/07/12 04:51:53;;;;;;;6.40;4.10;;;16.30;99.90;;;;;;2065223;28;20089;-75
2021/07/12 04:52:54;;;;;;;7.05;4.00;;;16.40;99.90;;;;;;2073584;28;20034;-75
2021/07/12 04:53:54;;;;;;;12.15;4.00;;;16.40;99.90;;;;;;2073187;28;20026;-75
2021/07/12 04:54:56;;;;;;;8.20;4.18;;;16.40;99.90;;;;;;2071397;28;20057;-75
2021/07/12 04:55:56;;;;;;;8.02;4.57;;;16.40;99.90;;;;;;2065229;28;20180;-74
2021/07/12 04:56:57;;;;;;;8.70;4.00;;;16.40;99.90;;;;;;2073415;28;20500;-74
2021/07/12 04:57:58;;;;;;;7.45;4.00;;;16.40;99.90;;;;;;2071999;28;20038;-75
2021/07/12 04:58:59;;;;;;;8.30;3.90;;;16.40;99.90;;;;;;2064888;28;20079;-75
2021/07/12 05:00:01;;;;;;;6.93;3.93;;;16.40;99.90;;;;;;2065094;28;20022;-75
2021/07/12 05:01:03;;;;;;;13.25;4.47;;;16.40;99.90;;;;;;2065389;28;20318;-77
2021/07/12 05:02:08;;;;;;;;;;;16.40;99.90;;;;;;2065657;28;20037;-75
2021/07/12 05:03:09;;;;;;;8.48;4.03;;;16.40;99.90;;;;;;2067844;28;19927;-76
2021/07/12 05:04:10;;;;;;;8.95;4.53;;;16.50;99.90;;;;;;2066856;28;20118;-75
2021/07/12 05:05:12;;;;;;;5.95;3.58;;;16.40;99.90;;;;;;2065953;28;20034;-74
2021/07/12 05:06:13;;;;;;;6.50;3.92;;;16.40;99.90;;;;;;2062077;28;20027;-76
2021/07/12 05:07:14;;;;;;;9.23;3.65;;;16.40;99.90;;;;;;2058203;28;20126;-76
2021/07/12 05:08:14;;;;;;;6.55;3.65;;;16.40;99.90;;;;;;2068514;28;20079;-76
2021/07/12 05:09:15;;;;;;;5.85;3.50;;;16.40;99.90;;;;;;2065387;28;20030;-75
2021/07/12 05:10:17;;;;;;;13.43;4.18;;;16.40;99.90;;;;;;2065292;28;20506;-75
2021/07/12 05:11:18;;;;;;;6.80;3.97;;;16.40;99.90;;;;;;2065299;28;20413;-75
2021/07/12 05:12:19;;;;;;;5.55;3.47;;;16.50;99.90;;;;;;2059092;28;20030;-74
2021/07/12 05:13:20;;;;;;;7.90;3.40;;;16.50;99.90;;;;;;2065059;28;20108;-75
2021/07/12 05:14:21;;;;;;;5.43;3.70;;;16.50;99.90;;;;;;2059731;28;20030;-74
2021/07/12 05:15:22;;;;;;;8.45;4.13;;;16.50;99.90;;;;;;2073455;28;20034;-75
2021/07/12 05:16:24;;;;;;;4.85;3.33;;;16.50;99.90;;;;;;2065309;28;20034;-75
2021/07/12 05:17:24;;;;;;;5.38;3.47;;;16.50;99.90;;;;;;2065289;28;20082;-75
2021/07/12 05:18:25;;;;;;;9.95;3.67;;;16.50;99.90;;;;;;2065076;28;20034;-76
2021/07/12 05:19:26;;;;;;;4.45;3.13;;;16.50;99.90;;;;;;2065152;28;20117;-74
2021/07/12 05:20:26;;;;;;;7.60;3.45;;;16.50;99.90;;;;;;2073310;28;20560;-74
2021/07/12 05:21:28;;;;;;;4.78;3.70;;;16.50;99.90;;;;;;2068041;28;20053;-75
2021/07/12 05:22:29;;;;;;;;;;;16.50;99.90;;;;;;2067047;28;20027;-75
2021/07/12 05:23:30;;;;;;;7.18;3.70;;;16.50;99.90;;;;;;2065026;28;19921;-75
2021/07/12 05:24:31;;;;;;;6.15;3.50;;;16.50;99.90;;;;;;2064750;28;20054;-74
2021/07/12 05:25:31;;;;;;;8.40;3.78;;;16.50;99.90;;;;;;2064979;28;20034;-74
2021/07/12 05:26:33;;;;;;;5.95;3.78;;;16.50;99.90;;;;;;2072679;28;20046;-74
2021/07/12 05:27:33;;;;;;;9.52;4.20;;;16.50;99.90;;;;;;2065205;28;20105;-74
2021/07/12 05:28:36;;;;;;;8.02;4.45;;;16.50;99.90;;;;;;2064798;28;20133;-75
2021/07/12 05:29:36;;;;;;;6.45;3.78;;;16.50;99.90;;;;;;2065297;28;20501;-77
2021/07/12 05:30:37;;;;;;;9.13;4.65;;;16.50;99.90;;;;;;2063965;28;20172;-75
2021/07/12 05:31:38;;;;;;;9.50;4.20;;;16.60;99.90;;;;;;2057048;28;20015;-75
2021/07/12 05:32:40;;;;;;;5.57;3.63;;;16.60;99.90;;;;;;2057930;28;20097;-74